createdAt,value
2023-05-14T00:01:40.794Z,9.35
2023-05-14T00:04:08.410Z,5.32
2023-05-14T00:06:36.015Z,7.30
2023-05-14T00:09:04.457Z,8.98
2023-05-14T00:11:32.086Z,4.45
2023-05-14T00:13:59.666Z,6.03
2023-05-14T00:16:27.259Z,5.18
2023-05-14T00:18:54.938Z,5.28
2023-05-14T00:21:22.741Z,6.82
2023-05-14T00:23:50.330Z,11.00
2023-05-14T00:26:17.835Z,6.13
2023-05-14T00:28:45.591Z,5.25
2023-05-14T00:31:13.237Z,10.27
2023-05-14T00:33:40.917Z,7.47
2023-05-14T00:36:08.687Z,8.68
2023-05-14T00:38:36.262Z,7.97
2023-05-14T00:41:06.842Z,6.35
2023-05-14T00:43:34.385Z,16.02
2023-05-14T00:46:01.992Z,8.93
2023-05-14T00:48:29.591Z,10.70
2023-05-14T00:50:57.183Z,10.32
2023-05-14T00:53:24.724Z,11.40
2023-05-14T00:55:52.369Z,8.17
2023-05-14T00:58:20.109Z,12.35
2023-05-14T01:00:47.794Z,10.20
2023-05-14T01:03:16.038Z,11.33
2023-05-14T01:05:46.797Z,9.77
2023-05-14T01:08:19.062Z,9.60
2023-05-14T01:10:53.573Z,7.35
2023-05-14T01:13:40.001Z,7.30
2023-05-14T01:16:07.664Z,11.73
2023-05-14T01:18:35.571Z,6.00
2023-05-14T01:21:03.250Z,11.47
2023-05-14T01:23:30.824Z,10.65
2023-05-14T01:25:58.397Z,6.90
2023-05-14T01:28:28.494Z,9.70
2023-05-14T01:31:02.093Z,10.98
2023-05-14T01:33:30.560Z,9.68
2023-05-14T01:35:58.781Z,9.80
2023-05-14T01:38:27.669Z,8.60
2023-05-14T01:40:55.499Z,12.63
2023-05-14T01:43:23.147Z,10.02
2023-05-14T01:45:50.754Z,9.00
2023-05-14T01:48:18.429Z,12.85
2023-05-14T01:50:46.156Z,8.80
2023-05-14T01:53:13.833Z,8.67
2023-05-14T01:55:41.417Z,8.27
2023-05-14T01:58:09.177Z,7.13
2023-05-14T02:00:36.795Z,12.85
2023-05-14T02:03:04.454Z,11.10
2023-05-14T02:05:32.110Z,11.80
2023-05-14T02:07:59.650Z,14.52
2023-05-14T02:10:27.303Z,12.90
2023-05-14T02:12:54.824Z,14.30
2023-05-14T02:15:22.435Z,15.70
2023-05-14T02:17:50.144Z,11.77
2023-05-14T02:20:17.818Z,19.65
2023-05-14T02:22:46.428Z,10.77
2023-05-14T02:25:14.097Z,12.60
2023-05-14T02:27:41.758Z,17.10
2023-05-14T02:30:09.995Z,11.48
2023-05-14T02:32:38.213Z,13.50
2023-05-14T02:35:06.160Z,10.47
2023-05-14T02:37:34.926Z,8.13
2023-05-14T02:40:02.495Z,12.40
2023-05-14T02:42:30.142Z,11.63
2023-05-14T02:44:57.696Z,8.18
2023-05-14T02:47:25.456Z,12.30
2023-05-14T02:49:53.179Z,8.68
2023-05-14T02:52:20.969Z,11.10
2023-05-14T02:54:48.591Z,13.43
2023-05-14T02:57:16.152Z,11.45
2023-05-14T02:59:43.695Z,13.27
2023-05-14T03:02:11.536Z,15.02
2023-05-14T03:04:39.599Z,10.93
2023-05-14T03:07:07.179Z,16.73
2023-05-14T03:09:37.420Z,9.30
2023-05-14T03:12:05.943Z,9.93
2023-05-14T03:14:33.575Z,9.02
2023-05-14T03:17:01.230Z,9.83
2023-05-14T03:19:30.162Z,8.27
2023-05-14T03:21:57.780Z,11.45
2023-05-14T03:24:25.332Z,10.10
2023-05-14T03:26:53.440Z,13.05
2023-05-14T03:29:21.041Z,7.43
2023-05-14T03:31:48.839Z,9.90
2023-05-14T03:34:16.381Z,9.77
2023-05-14T03:36:44.031Z,11.48
2023-05-14T03:39:11.644Z,6.80
2023-05-14T03:41:39.423Z,10.23
2023-05-14T03:44:07.047Z,10.82
2023-05-14T03:46:34.582Z,13.65
2023-05-14T03:49:02.352Z,11.83
2023-05-14T03:51:29.971Z,9.65
2023-05-14T03:53:58.442Z,11.88
2023-05-14T03:56:26.347Z,7.77
2023-05-14T03:58:54.070Z,13.18
2023-05-14T04:01:21.608Z,13.55
2023-05-14T04:03:49.364Z,19.20
2023-05-14T04:06:17.174Z,14.63
2023-05-14T04:08:44.805Z,13.57
2023-05-14T04:11:12.356Z,8.65
2023-05-14T04:13:39.967Z,14.00
2023-05-14T04:16:07.609Z,15.43
2023-05-14T04:18:35.863Z,23.73
2023-05-14T04:21:03.551Z,10.30
2023-05-14T04:23:32.064Z,11.30
2023-05-14T04:25:59.730Z,13.57
2023-05-14T04:28:27.376Z,10.93
2023-05-14T04:30:55.510Z,17.67
2023-05-14T04:33:23.106Z,18.70
2023-05-14T04:35:50.774Z,8.63
2023-05-14T04:38:18.436Z,14.40
2023-05-14T04:40:46.186Z,18.13
2023-05-14T04:43:13.790Z,16.30
2023-05-14T04:45:41.354Z,14.50
2023-05-14T04:48:09.064Z,8.95
2023-05-14T04:50:36.671Z,10.15
2023-05-14T04:53:04.400Z,15.40
2023-05-14T04:55:32.151Z,17.60
2023-05-14T04:57:59.912Z,17.75
2023-05-14T05:00:27.618Z,8.57
2023-05-14T05:02:55.292Z,20.47
2023-05-14T05:05:23.168Z,13.38
2023-05-14T05:07:50.908Z,13.88
2023-05-14T05:10:18.541Z,12.97
2023-05-14T05:12:46.146Z,11.93
2023-05-14T05:15:13.822Z,10.50
2023-05-14T05:17:41.407Z,10.30
2023-05-14T05:20:10.109Z,11.60
2023-05-14T05:22:37.703Z,9.73
2023-05-14T05:25:06.464Z,14.07
2023-05-14T05:27:34.103Z,15.90
2023-05-14T05:30:04.637Z,12.52
2023-05-14T05:32:32.230Z,13.80
2023-05-14T05:34:59.844Z,9.63
2023-05-14T05:37:27.452Z,15.38
2023-05-14T05:39:54.998Z,12.23
2023-05-14T05:42:22.778Z,12.98
2023-05-14T05:44:50.555Z,8.90
2023-05-14T05:47:18.251Z,16.95
2023-05-14T05:49:45.794Z,8.13
2023-05-14T05:52:13.485Z,14.17
2023-05-14T05:54:41.115Z,7.68
2023-05-14T05:57:08.829Z,11.68
2023-05-14T05:59:36.404Z,17.10
2023-05-14T06:02:04.264Z,19.20
2023-05-14T06:04:31.872Z,14.75
2023-05-14T06:06:59.459Z,12.75
2023-05-14T06:09:27.064Z,14.97
2023-05-14T06:11:55.189Z,14.95
2023-05-14T06:14:23.435Z,7.05
2023-05-14T06:16:51.092Z,12.93
2023-05-14T06:19:19.440Z,6.97
2023-05-14T06:21:47.086Z,10.30
2023-05-14T06:24:14.768Z,8.17
2023-05-14T06:26:42.454Z,9.63
2023-05-14T06:29:10.063Z,6.32
2023-05-14T06:31:37.822Z,10.40
2023-05-14T06:34:06.642Z,12.03
2023-05-14T06:36:34.290Z,9.20
2023-05-14T06:39:01.925Z,9.73
2023-05-14T06:41:29.758Z,9.20
2023-05-14T06:43:57.794Z,11.27
2023-05-14T06:46:25.397Z,8.60
2023-05-14T06:48:54.242Z,15.38
2023-05-14T06:51:21.977Z,15.93
2023-05-14T06:53:49.729Z,10.18
2023-05-14T06:56:17.328Z,11.00
2023-05-14T06:58:45.083Z,10.23
2023-05-14T07:01:12.816Z,18.45
2023-05-14T07:03:40.597Z,9.73
2023-05-14T07:06:09.938Z,7.73
2023-05-14T07:08:38.927Z,8.85
2023-05-14T07:11:06.554Z,12.82
2023-05-14T07:13:34.157Z,8.60
2023-05-14T07:16:01.802Z,10.50
2023-05-14T07:18:30.034Z,10.60
2023-05-14T07:20:57.673Z,9.40
2023-05-14T07:23:25.236Z,10.40
2023-05-14T07:25:52.896Z,9.02
2023-05-14T07:28:20.669Z,12.27
2023-05-14T07:30:48.279Z,9.47
2023-05-14T07:33:15.885Z,12.13
2023-05-14T07:35:43.450Z,12.50
2023-05-14T07:38:11.166Z,12.98
2023-05-14T07:40:38.831Z,13.70
2023-05-14T07:43:07.006Z,9.45
2023-05-14T07:45:34.540Z,14.57
2023-05-14T07:48:02.377Z,11.87
2023-05-14T07:50:29.986Z,6.75
2023-05-14T07:52:57.736Z,10.05
2023-05-14T07:55:26.260Z,9.83
2023-05-14T07:57:53.996Z,9.48
2023-05-14T08:00:21.712Z,10.70
2023-05-14T08:02:50.603Z,11.20
2023-05-14T08:05:18.646Z,13.93
2023-05-14T08:07:46.583Z,12.45
2023-05-14T08:10:14.197Z,10.27
2023-05-14T08:12:42.958Z,8.60
2023-05-14T08:15:10.738Z,8.05
2023-05-14T08:17:38.415Z,6.35
2023-05-14T08:20:06.977Z,5.60
2023-05-14T08:22:34.603Z,15.23
2023-05-14T08:25:03.946Z,8.10
2023-05-14T08:27:31.959Z,13.68
2023-05-14T08:30:00.177Z,12.50
2023-05-14T08:32:27.810Z,8.30
2023-05-14T08:34:55.458Z,9.25
2023-05-14T08:37:23.527Z,8.13
2023-05-14T08:39:51.413Z,16.42
2023-05-14T08:42:20.169Z,8.77
2023-05-14T08:44:51.496Z,8.73
2023-05-14T08:47:19.379Z,10.13
2023-05-14T08:49:50.981Z,9.75
2023-05-14T08:52:18.879Z,10.23
2023-05-14T08:54:46.562Z,9.20
2023-05-14T08:57:14.224Z,11.70
2023-05-14T08:59:41.927Z,8.05
2023-05-14T09:02:09.621Z,11.37
2023-05-14T09:04:37.270Z,8.85
2023-05-14T09:07:04.944Z,13.15
2023-05-14T09:09:32.585Z,8.50
2023-05-14T09:12:00.174Z,10.25
2023-05-14T09:14:27.836Z,7.68
2023-05-14T09:16:55.637Z,10.35
2023-05-14T09:19:23.244Z,7.22
2023-05-14T09:21:50.885Z,9.38
2023-05-14T09:24:21.759Z,7.07
2023-05-14T09:26:53.559Z,13.83
2023-05-14T09:29:21.204Z,11.07
2023-05-14T09:31:49.060Z,12.85
2023-05-14T09:34:24.485Z,7.53
2023-05-14T09:36:55.372Z,8.05
2023-05-14T09:39:24.298Z,9.68
2023-05-14T09:41:51.982Z,11.02
2023-05-14T09:44:20.073Z,10.82
2023-05-14T09:46:47.933Z,9.35
2023-05-14T09:49:15.698Z,9.32
2023-05-14T09:51:43.227Z,11.30
2023-05-14T09:54:10.875Z,10.88
2023-05-14T09:56:39.706Z,16.42
2023-05-14T09:59:07.399Z,12.13
2023-05-14T10:01:35.031Z,8.93
2023-05-14T10:04:04.689Z,9.75
2023-05-14T10:06:33.859Z,11.50
2023-05-14T10:09:02.548Z,14.70
2023-05-14T10:11:31.938Z,10.73
2023-05-14T10:14:08.770Z,10.20
2023-05-14T10:16:38.444Z,6.50
2023-05-14T10:19:09.819Z,9.27
2023-05-14T10:21:37.810Z,13.65
2023-05-14T10:24:05.782Z,9.83
2023-05-14T10:26:33.494Z,12.45
2023-05-14T10:29:01.190Z,14.93
2023-05-14T10:31:53.389Z,11.80
2023-05-14T10:34:38.914Z,10.63
2023-05-14T10:37:07.359Z,11.05
2023-05-14T10:39:56.655Z,8.38
2023-05-14T10:42:24.896Z,8.47
2023-05-14T10:44:53.593Z,10.63
2023-05-14T10:47:21.305Z,11.38
2023-05-14T10:49:53.100Z,8.30
2023-05-14T10:52:20.759Z,10.82
2023-05-14T10:54:55.126Z,9.30
2023-05-14T10:57:23.362Z,11.65
2023-05-14T10:59:54.846Z,13.07
2023-05-14T11:02:29.928Z,10.52
2023-05-14T11:04:59.276Z,12.40
2023-05-14T11:07:53.970Z,11.23
2023-05-14T11:10:22.264Z,7.88
2023-05-14T11:12:53.789Z,9.25
2023-05-14T11:15:22.048Z,9.50
2023-05-14T11:17:49.959Z,11.00
2023-05-14T11:20:18.037Z,6.40
2023-05-14T11:22:45.991Z,8.70
2023-05-14T11:25:17.172Z,9.65
2023-05-14T11:27:45.367Z,11.95
2023-05-14T11:30:14.308Z,16.70
2023-05-14T11:32:42.020Z,7.10
2023-05-14T11:35:09.851Z,18.13
2023-05-14T11:37:37.553Z,12.38
2023-05-14T11:40:09.912Z,12.27
2023-05-14T11:42:37.821Z,11.82
2023-05-14T11:45:06.029Z,11.52
2023-05-14T11:47:33.790Z,15.43
2023-05-14T11:50:01.330Z,8.98
2023-05-14T11:52:28.999Z,10.40
2023-05-14T11:54:56.575Z,13.13
2023-05-14T11:57:24.260Z,11.43
2023-05-14T11:59:59.036Z,11.38
2023-05-14T12:02:30.731Z,12.70
2023-05-14T12:05:01.605Z,9.13
2023-05-14T12:07:30.666Z,12.70
2023-05-14T12:10:01.234Z,17.85
2023-05-14T12:12:28.838Z,10.63
2023-05-14T12:14:56.403Z,12.20
2023-05-14T12:17:24.012Z,11.48
2023-05-14T12:19:52.080Z,16.08
2023-05-14T12:22:20.363Z,16.33
2023-05-14T12:24:57.387Z,11.52
2023-05-14T12:27:26.413Z,10.77
2023-05-14T12:30:12.866Z,13.60
2023-05-14T12:32:51.984Z,10.93
2023-05-14T12:35:20.021Z,13.63
2023-05-14T12:37:47.572Z,10.15
2023-05-14T12:40:15.398Z,10.18
2023-05-14T12:42:43.018Z,10.93
2023-05-14T12:45:10.828Z,17.73
2023-05-14T12:47:38.506Z,8.83
2023-05-14T12:50:06.635Z,14.40
2023-05-14T12:52:38.590Z,11.18
2023-05-14T12:55:10.115Z,12.80
2023-05-14T12:57:39.112Z,12.02
2023-05-14T13:00:08.376Z,11.32
2023-05-14T13:02:42.731Z,13.00
2023-05-14T13:05:12.011Z,11.43
2023-05-14T13:07:39.843Z,12.80
2023-05-14T13:10:07.700Z,13.52
2023-05-14T13:12:35.394Z,12.77
2023-05-14T13:15:03.018Z,15.07
2023-05-14T13:17:30.745Z,12.25
2023-05-14T13:19:58.513Z,10.13
2023-05-14T13:22:26.137Z,11.88
2023-05-14T13:24:53.796Z,11.20
2023-05-14T13:27:21.350Z,10.60
2023-05-14T13:29:50.316Z,10.93
2023-05-14T13:32:17.865Z,12.95
2023-05-14T13:34:45.520Z,11.73
2023-05-14T13:37:13.192Z,12.00
2023-05-14T13:39:41.194Z,15.85
2023-05-14T13:42:08.876Z,13.90
2023-05-14T13:44:36.589Z,9.40
2023-05-14T13:47:04.439Z,13.38
2023-05-14T13:49:32.012Z,12.88
2023-05-14T13:51:59.622Z,10.93
2023-05-14T13:54:27.165Z,13.35
2023-05-14T13:56:55.210Z,9.48
2023-05-14T13:59:24.237Z,10.38
2023-05-14T14:01:52.070Z,12.57
2023-05-14T14:04:20.096Z,11.13
2023-05-14T14:06:47.687Z,11.32
2023-05-14T14:09:15.285Z,11.80
2023-05-14T14:11:42.805Z,12.25
2023-05-14T14:14:10.425Z,11.38
2023-05-14T14:16:38.019Z,13.55
2023-05-14T14:19:05.812Z,12.13
2023-05-14T14:21:34.181Z,13.20
2023-05-14T14:24:02.054Z,11.73
2023-05-14T14:26:29.645Z,12.30
2023-05-14T14:28:57.410Z,13.38
2023-05-14T14:31:25.186Z,8.27
2023-05-14T14:33:52.859Z,11.00
2023-05-14T14:36:21.257Z,12.73
2023-05-14T14:38:49.236Z,11.13
2023-05-14T14:41:16.767Z,14.23
2023-05-14T14:43:44.252Z,15.77
2023-05-14T14:46:11.842Z,11.50
2023-05-14T14:48:39.979Z,13.35
2023-05-14T14:51:07.961Z,10.17
2023-05-14T14:53:35.856Z,9.57
2023-05-14T14:56:03.509Z,17.08
2023-05-14T14:58:31.392Z,13.67
2023-05-14T15:00:59.046Z,13.30
2023-05-14T15:03:27.005Z,10.95
2023-05-14T15:05:54.740Z,11.77
2023-05-14T15:08:25.633Z,12.93
2023-05-14T15:10:54.617Z,10.93
2023-05-14T15:13:22.194Z,12.48
2023-05-14T15:15:51.802Z,11.67
2023-05-14T15:18:19.493Z,14.60
2023-05-14T15:20:47.107Z,11.48
2023-05-14T15:23:14.762Z,10.33
2023-05-14T15:25:42.460Z,10.18
2023-05-14T15:28:10.190Z,13.90
2023-05-14T15:30:37.835Z,10.63
2023-05-14T15:33:06.126Z,13.63
2023-05-14T15:35:33.847Z,11.18
2023-05-14T15:38:01.582Z,12.00
2023-05-14T15:40:30.866Z,16.07
2023-05-14T15:42:58.561Z,10.95
2023-05-14T15:45:26.141Z,13.65
2023-05-14T15:47:53.962Z,15.10
2023-05-14T15:50:21.599Z,12.88
2023-05-14T15:52:49.364Z,11.27
2023-05-14T15:55:16.981Z,14.68
2023-05-14T15:57:44.875Z,9.32
2023-05-14T16:00:12.712Z,10.63
2023-05-14T16:02:40.424Z,11.80
2023-05-14T16:05:08.607Z,14.60
2023-05-14T16:07:36.750Z,12.63
2023-05-14T16:10:05.070Z,13.75
2023-05-14T16:12:32.737Z,13.63
2023-05-14T16:15:00.454Z,19.55
2023-05-14T16:17:28.661Z,10.40
2023-05-14T16:19:56.715Z,11.77
2023-05-14T16:22:24.509Z,15.02
2023-05-14T16:24:52.078Z,10.45
2023-05-14T16:27:19.797Z,15.38
2023-05-14T16:29:47.385Z,12.20
2023-05-14T16:32:14.930Z,10.95
2023-05-14T16:34:47.535Z,12.55
2023-05-14T16:37:15.230Z,19.47
2023-05-14T16:39:43.160Z,10.43
2023-05-14T16:42:10.763Z,13.98
2023-05-14T16:44:38.381Z,15.10
2023-05-14T16:47:06.217Z,13.48
2023-05-14T16:49:33.867Z,13.45
2023-05-14T16:52:01.440Z,12.55
2023-05-14T16:54:29.073Z,14.03
2023-05-14T16:56:56.743Z,14.45
2023-05-14T16:59:25.342Z,16.83
2023-05-14T17:01:53.377Z,18.43
2023-05-14T17:04:21.363Z,14.43
2023-05-14T17:06:50.335Z,17.25
2023-05-14T17:09:18.306Z,16.52
2023-05-14T17:11:46.143Z,18.27
2023-05-14T17:14:14.158Z,15.73
2023-05-14T17:16:43.674Z,16.35
2023-05-14T17:19:11.840Z,18.93
2023-05-14T17:21:40.635Z,15.57
2023-05-14T17:24:08.322Z,17.55
2023-05-14T17:26:38.054Z,16.00
2023-05-14T17:29:05.867Z,16.92
2023-05-14T17:31:33.606Z,18.58
2023-05-14T17:34:01.342Z,16.17
2023-05-14T17:36:32.033Z,19.33
2023-05-14T17:39:00.145Z,18.58
2023-05-14T17:41:30.678Z,19.58
2023-05-14T17:43:58.204Z,18.77
2023-05-14T17:46:26.395Z,19.65
2023-05-14T17:48:55.750Z,19.05
2023-05-14T17:51:23.565Z,16.40
2023-05-14T17:53:51.564Z,19.15
2023-05-14T17:56:19.381Z,20.10
2023-05-14T17:58:47.025Z,22.13
2023-05-14T18:01:14.788Z,20.65
2023-05-14T18:03:42.538Z,18.27
2023-05-14T18:06:10.327Z,18.92
2023-05-14T18:08:38.848Z,18.63
2023-05-14T18:11:10.248Z,18.98
2023-05-14T18:13:39.893Z,24.25
2023-05-14T18:16:07.880Z,20.50
2023-05-14T18:18:39.623Z,19.45
2023-05-14T18:21:07.389Z,20.30
2023-05-14T18:23:35.062Z,19.13
2023-05-14T18:26:02.685Z,23.25
2023-05-14T18:28:30.287Z,23.00
2023-05-14T18:30:58.167Z,18.92
2023-05-14T18:33:26.020Z,25.93
2023-05-14T18:35:53.706Z,21.77
2023-05-14T18:38:21.410Z,27.08
2023-05-14T18:40:49.765Z,19.93
2023-05-14T18:43:18.606Z,22.80
2023-05-14T18:45:47.284Z,21.17
2023-05-14T18:48:15.527Z,21.90
2023-05-14T18:50:43.286Z,18.95
2023-05-14T18:53:10.937Z,23.33
2023-05-14T18:55:38.581Z,18.58
2023-05-14T18:58:06.130Z,20.93
2023-05-14T19:00:33.838Z,23.08
2023-05-14T19:03:01.568Z,21.70
2023-05-14T19:05:29.217Z,22.73
2023-05-14T19:07:57.382Z,24.33
2023-05-14T19:10:24.984Z,21.15
2023-05-14T19:12:52.639Z,22.35
2023-05-14T19:15:20.505Z,23.10
2023-05-14T19:17:48.150Z,23.95
2023-05-14T19:20:15.805Z,21.75
2023-05-14T19:22:43.363Z,21.63
2023-05-14T19:25:11.558Z,22.42
2023-05-14T19:27:39.281Z,23.48
2023-05-14T19:30:07.160Z,26.87
2023-05-14T19:32:36.196Z,21.60
2023-05-14T19:35:03.867Z,25.85
2023-05-14T19:37:31.501Z,20.17
2023-05-14T19:39:59.080Z,20.35
2023-05-14T19:42:27.101Z,21.85
2023-05-14T19:44:55.928Z,22.77
2023-05-14T19:47:24.641Z,24.30
2023-05-14T19:49:52.366Z,24.50
2023-05-14T19:52:19.866Z,26.17
2023-05-14T19:54:47.422Z,23.33
2023-05-14T19:57:15.061Z,22.27
2023-05-14T19:59:42.735Z,22.08
2023-05-14T20:02:12.954Z,24.43
2023-05-14T20:04:40.978Z,27.13
2023-05-14T20:07:09.090Z,21.58
2023-05-14T20:09:37.470Z,26.45
2023-05-14T20:12:05.313Z,24.90
2023-05-14T20:14:32.897Z,29.98
2023-05-14T20:17:00.531Z,23.80
2023-05-14T20:19:28.117Z,21.70
2023-05-14T20:21:56.518Z,25.85
2023-05-14T20:24:24.089Z,26.48
2023-05-14T20:26:51.613Z,26.47
2023-05-14T20:29:19.229Z,30.73
2023-05-14T20:31:46.775Z,29.13
2023-05-14T20:34:14.407Z,29.27
2023-05-14T20:36:42.054Z,29.97
2023-05-14T20:39:10.419Z,27.35
2023-05-14T20:41:38.178Z,27.13
2023-05-14T20:44:05.862Z,30.80
2023-05-14T20:46:33.470Z,30.50
2023-05-14T20:49:04.719Z,25.50
2023-05-14T20:51:32.784Z,26.40
2023-05-14T20:54:00.952Z,27.70
2023-05-14T20:56:28.521Z,30.27
2023-05-14T20:58:56.147Z,29.08
2023-05-14T21:01:23.839Z,25.47
2023-05-14T21:03:51.686Z,28.77
2023-05-14T21:06:19.324Z,31.25
2023-05-14T21:08:46.984Z,30.33
2023-05-14T21:11:14.510Z,29.90
2023-05-14T21:13:43.874Z,28.05
2023-05-14T21:16:12.835Z,35.60
2023-05-14T21:18:40.532Z,29.73
2023-05-14T21:21:08.168Z,32.55
2023-05-14T21:23:35.796Z,32.10
2023-05-14T21:26:03.410Z,29.40
2023-05-14T21:28:31.497Z,27.65
2023-05-14T21:30:59.086Z,29.17
2023-05-14T21:33:26.634Z,29.37
2023-05-14T21:35:54.296Z,27.98
2023-05-14T21:38:21.892Z,29.10
2023-05-14T21:40:49.443Z,27.53
2023-05-14T21:43:16.941Z,28.33
2023-05-14T21:45:46.107Z,26.58
2023-05-14T21:48:13.767Z,27.15
2023-05-14T21:50:41.422Z,24.60
2023-05-14T21:53:08.997Z,28.00
2023-05-14T21:55:36.664Z,30.30
2023-05-14T21:58:04.492Z,27.23
2023-05-14T22:00:32.139Z,28.83
2023-05-14T22:02:59.722Z,30.13
2023-05-14T22:05:27.551Z,28.10
2023-05-14T22:07:55.407Z,26.90
2023-05-14T22:10:22.998Z,28.70
2023-05-14T22:12:50.608Z,26.88
2023-05-14T22:15:18.090Z,26.90
2023-05-14T22:17:47.042Z,35.13
2023-05-14T22:20:14.690Z,36.75
2023-05-14T22:22:42.254Z,40.33
2023-05-14T22:25:10.001Z,31.73
2023-05-14T22:27:37.667Z,32.05
2023-05-14T22:30:05.449Z,32.70
2023-05-14T22:32:33.113Z,28.92
2023-05-14T22:35:00.750Z,30.05
2023-05-14T22:37:28.468Z,29.40
2023-05-14T22:39:56.070Z,33.23
2023-05-14T22:42:23.605Z,30.88
2023-05-14T22:44:51.593Z,27.73
2023-05-14T22:47:19.236Z,26.73
2023-05-14T22:49:46.740Z,26.60
2023-05-14T22:52:14.355Z,28.95
2023-05-14T22:54:42.437Z,34.20
2023-05-14T22:57:10.071Z,27.60
2023-05-14T22:59:38.511Z,31.90
2023-05-14T23:02:06.769Z,27.45
2023-05-14T23:04:34.546Z,28.07
2023-05-14T23:07:02.369Z,29.48
2023-05-14T23:09:29.974Z,26.65
2023-05-14T23:11:57.552Z,30.70
2023-05-14T23:14:25.141Z,30.88
2023-05-14T23:16:52.698Z,36.63
2023-05-14T23:19:21.264Z,30.00
2023-05-14T23:21:48.954Z,28.70
2023-05-14T23:24:16.485Z,28.25
2023-05-14T23:26:43.983Z,29.52
2023-05-14T23:29:11.599Z,31.43
2023-05-14T23:31:41.118Z,32.20
2023-05-14T23:34:08.803Z,30.50
2023-05-14T23:36:36.535Z,35.83
2023-05-14T23:39:04.162Z,28.42
2023-05-14T23:41:31.911Z,30.20
2023-05-14T23:43:59.450Z,28.77
2023-05-14T23:46:27.394Z,32.38
2023-05-14T23:48:57.154Z,30.08
2023-05-14T23:51:25.041Z,27.63
2023-05-14T23:53:56.408Z,27.63
2023-05-14T23:56:24.216Z,28.42
2023-05-14T23:58:51.956Z,32.53
